In Rescue
 
Open Full Screen Window  High Contrast Mode
Wind Gusting 18 knots
10
October 07, 2022 2:02 PM EDT
Weather Information
Wind Direction
  320 °
Wind Speed
  10 kt (12 mph)
Wind Gust
  18 kt (21 mph)
Altimeter
30.24 in
Visibility
---
Temperature
11° C
52° F
Dewpoint
02° C
36° F
Humidity
54%
1hr Rain Fall
00.00 in.
24hr Rain Fall
00.00 in.
Sky Condition
Overcast @ 3,700 ft

METAR KDLZ 071802Z AUTO 32010G18KT OVC037 11/02 A3024 RMK AO2 PWINO

FAA Disclaimer: The data displayed is for advisory purposes only and is not to be used for flight planning or operations.